Tiempo atmosférico en la estación meteorológica de Maspalomas, Las Palmas (25 m.)



Fecha
DESCASC
Temp. máxima en grados centígrados (hora)
DESCASC
Temp. mínima en grados centígrados (hora)
DESCASC
Temp. media en grados centígrados
DESCASC
Racha de viento máxima en m/sg (hora)
DESCASC
Velocidad máxima media en intervalos de 10 minutos(hora)
DESCASC
Precipitaciones diarias en mm
DESCASC
Precipitaciones de 00:00 a 06:00 en mm
DESCASC
Precipitaciones de 06:00 a 12:00 en mm
DESCASC
Precipitaciones de 12:00 a 18:00 en mm
DESCASC
Precipitaciones de 18:00 a 24:00 en mm
DESCASC
06-07-2020 -- (--) -- (--) -- 7.5 (14:40) 4.72 (14:20) 0 0 0 0 0
05-07-2020 -- (--) -- (--) -- 5.28 (06:00) 4.17 (17:20) 0 0 0 0 0
04-07-2020 -- (--) -- (--) -- 6.11 (12:50) 4.72 (14:20) 0 0 0 0 0
03-07-2020 -- (--) -- (--) -- 6.94 (15:30) 4.17 (16:10) 0 0 0 0 0
02-07-2020 -- (--) -- (--) -- 9.44 (13:10) 6.39 (08:00) 0 0 0 0 0
01-07-2020 -- (--) -- (--) -- 7.22 (18:40) 4.17 (15:10) 0 0 0 0 0
30-06-2020 -- (--) -- (--) -- 6.67 (17:10) 4.72 (13:50) 0 0 0 0 0
29-06-2020 -- (--) -- (--) -- 6.67 (15:10) 5.56 (15:10) 0 0 0 0 0
28-06-2020 -- (--) -- (--) -- 7.5 (17:30) 4.44 (19:10) 0 0 0 0 0
27-06-2020 -- (--) -- (--) -- 5.83 (17:20) 4.72 (15:40) 0 0 0 0 0
26-06-2020 -- (--) -- (--) -- 6.67 (16:50) 5 (13:30) 0 0 0 0 0
25-06-2020 -- (--) -- (--) -- 8.06 (17:50) 6.39 (17:40) 0 0 0 0 0
24-06-2020 -- (--) -- (--) -- 8.06 (16:50) 4.72 (19:00) 0 0 0 0 0
23-06-2020 -- (--) -- (--) -- 5.56 (13:10) 4.17 (17:40) 0 0 0 0 0
22-06-2020 -- (--) -- (--) -- 6.11 (18:30) 4.17 (17:50) 0 0 0 0 0
21-06-2020 -- (--) -- (--) -- 6.11 (14:00) 4.72 (15:30) 0 0 0 0 0
20-06-2020 -- (--) -- (--) -- 7.5 (02:00) 4.72 (02:00) 0 0 0 0 0
19-06-2020 -- (--) -- (--) -- 10.28 (09:40) 5.83 (09:40) 0 0 0 0 0
18-06-2020 -- (--) -- (--) -- 6.67 (17:00) 4.72 (15:30) 0 0 0 0 0
17-06-2020 -- (--) -- (--) -- 7.22 (15:10) 6.11 (15:10) 0 0 0 0 0
16-06-2020 -- (--) -- (--) -- 9.44 (12:50) 7.5 (13:20) -- 0 -- 0 0
15-06-2020 -- (--) -- (--) -- 11.11 (01:10) 7.5 (01:10) 0 0 0 0 0
14-06-2020 -- (--) -- (--) -- 11.94 (12:20) 10.56 (12:20) 0.1 0 0 0 0.1
13-06-2020 -- (--) -- (--) -- 11.67 (02:00) 8.06 (11:30) 0 0 0 0 0
12-06-2020 -- (--) -- (--) -- -- (--) -- (--) -- -- -- 0 0
11-06-2020 -- (--) -- (--) -- 10.83 (11:30) 8.33 (12:10) 0 0 0 0 0
10-06-2020 -- (--) -- (--) -- 15.56 (15:50) 11.39 (15:20) 0 0 0 0 0
09-06-2020 -- (--) -- (--) -- 14.44 (13:00) 11.39 (13:00) 0 0 0 0 0
08-06-2020 -- (--) -- (--) -- 13.33 (17:10) 9.72 (17:30) 0 0 0 0 0

Gráficas

Temp. máximas Temp. mínimas Temp. medias Precipitaciones Rachas de viento máximas Velocidades máximas media en intervalos de 10 minutos

Datos horarios

Fecha y hora oficial Temperatura (ºC) Velocidad del viento (km/h) Dirección del viento Racha (km/h) Dirección de racha Precipitación (mm) Presión (hPa) Tendencia (hPa) Humedad (%)
2020-07-07 23:00:00 23.7 7 Oeste 14 Oeste 0 -- -- 99
2020-07-07 22:00:00 23.9 6 Oeste 13 Oeste 0 -- -- 99
2020-07-07 21:00:00 23.9 5 Oeste 12 Oeste 0 -- -- 99
2020-07-07 20:00:00 24.4 5 Oeste 12 Oeste 0 -- -- 98
2020-07-07 19:00:00 24.3 10 Sudoeste 13 Sudoeste 0 -- -- 98
2020-07-07 18:00:00 24.3 10 Sudoeste 15 Sudoeste 0 -- -- 98
2020-07-07 17:00:00 24.6 11 Sudoeste 17 Oeste 0 -- -- 95
2020-07-07 16:00:00 25.8 11 Sudoeste 22 Oeste 0 -- -- 92
2020-07-07 15:00:00 24.9 12 Oeste 18 Oeste 0 -- -- 94
2020-07-07 14:00:00 24.5 13 Sudoeste 17 Sudoeste 0 -- -- 96
2020-07-07 13:00:00 24.8 12 Sur 16 Sur 0 -- -- 94
2020-07-07 12:00:00 24 12 Sur 15 Sur 0 -- -- 98
2020-07-07 11:00:00 24 4 Sur -- -- -- -- -- 97
2020-07-07 10:00:00 -- -- -- -- -- -- -- -- --
2020-07-07 09:00:00 22.7 17 Oeste 30 Oeste 0 -- -- 99
2020-07-07 08:00:00 22.8 4 Oeste 18 Oeste 0 -- -- 99
2020-07-07 07:00:00 22.7 0 Calma 13 Sudeste 0 -- -- 99
2020-07-07 06:00:00 23.3 0 Calma 22 Oeste 0 -- -- 99
2020-07-07 05:00:00 22.8 13 Oeste 22 Oeste 0 -- -- 99
2020-07-07 04:00:00 22.9 11 Oeste 23 Oeste 0 -- -- 99
2020-07-07 03:00:00 23.5 0 Calma -- -- 0 -- -- 99
2020-07-07 02:00:00 23 0 Calma -- -- 0 -- -- 99
2020-07-07 01:00:00 23.3 0 Calma 12 Oeste 0 -- -- 99
2020-07-07 00:00:00 23.6 0 Calma 5 Oeste 0 -- -- 98
2020-07-06 23:00:00 23.4 0 Calma -- -- 0 -- -- 99
2020-07-06 22:00:00 23.7 0 Calma -- -- 0 -- -- 95
2020-07-06 21:00:00 23.6 0 Calma 12 Sudoeste 0 -- -- 98
2020-07-06 20:00:00 23.8 10 Sudoeste 16 Sudoeste 0 -- -- 98
2020-07-06 19:00:00 24.3 11 Sudoeste 18 Sudoeste 0 -- -- 93
2020-07-06 18:00:00 25.2 9 Oeste 17 Oeste 0 -- -- 90
2020-07-06 17:00:00 24.9 11 Sudoeste 19 Sudoeste 0 -- -- 92
2020-07-06 16:00:00 25.6 15 Sudoeste 20 Oeste 0 -- -- 88
2020-07-06 15:00:00 25.6 12 Oeste 27 Oeste 0 -- -- 87
2020-07-06 14:00:00 25.5 15 Oeste 24 Oeste 0 -- -- 87
2020-07-06 13:00:00 25.7 6 Oeste 19 Sudoeste 0 -- -- 86
2020-07-06 12:00:00 24.7 13 Sudoeste 21 Sudoeste 0 -- -- 90
2020-07-06 11:00:00 24.3 5 Sudoeste 13 Sur 0 -- -- 94
2020-07-06 10:00:00 23.9 13 Sudoeste 16 Sudoeste 0 -- -- 98
2020-07-06 09:00:00 23.5 2 Sudoeste 10 Sudoeste 0 -- -- 98
2020-07-06 08:00:00 22.7 0 Calma -- -- 0 -- -- 99
2020-07-06 07:00:00 22.7 0 Calma 0 Calma 0 -- -- 99
2020-07-06 06:00:00 22.9 0 Calma 7 Sur 0 -- -- 97
2020-07-06 05:00:00 22.9 0 Calma 5 Oeste 0 -- -- 90
2020-07-06 04:00:00 23.8 0 Calma 13 Oeste 0 -- -- 84
2020-07-06 03:00:00 24 5 Oeste 21 Oeste 0 -- -- 84
2020-07-06 02:00:00 23.8 4 Oeste 13 Oeste 0 -- -- 85
2020-07-06 01:00:00 22.8 0 Calma 14 Sudoeste 0 -- -- 99
2020-07-06 00:00:00 23.1 5 Oeste 16 Sudoeste 0 -- -- 99
2020-07-05 23:00:00 23.3 9 Sudoeste 14 Oeste 0 -- -- 97
2020-07-05 22:00:00 23.2 5 Oeste 10 Oeste 0 -- -- 93
2020-07-05 21:00:00 23.3 8 Sudoeste 17 Sur 0 -- -- 96
2020-07-05 20:00:00 24.1 12 Sudoeste 15 Sur 0 -- -- 91
2020-07-05 19:00:00 24.4 7 Sudoeste 12 Sudoeste 0 -- -- 85
2020-07-05 18:00:00 25.5 8 Sudoeste 18 Sudoeste 0 -- -- 86
2020-07-05 17:00:00 25.5 14 Sudoeste 18 Sudoeste 0 -- -- 84
2020-07-05 16:00:00 25.7 11 Sur 13 Sudoeste 0 -- -- 87
2020-07-05 15:00:00 25.6 7 Sudoeste 15 Sudoeste 0 -- -- 89
2020-07-05 14:00:00 24.6 6 Sudoeste 19 Sudoeste 0 -- -- 91
2020-07-05 13:00:00 25 12 Sudoeste 16 Sudoeste 0 -- -- 88
2020-07-05 12:00:00 24.1 8 Sudoeste 13 Sudoeste 0 -- -- 89
2020-07-05 11:00:00 23.7 10 Sudoeste 12 Sudoeste 0 -- -- 92
2020-07-05 10:00:00 22.9 7 Sudoeste 10 Sudoeste 0 -- -- 93
2020-07-05 09:00:00 22.7 0 Calma -- -- 0 -- -- 95
2020-07-05 08:00:00 22.2 0 Calma 16 Sudoeste 0 -- -- 96
2020-07-05 07:00:00 22.3 9 Sudoeste 19 Oeste 0 -- -- 94
2020-07-05 06:00:00 22.2 8 Oeste 19 Noroeste 0 -- -- 94
2020-07-05 05:00:00 22.2 6 Oeste 14 Oeste 0 -- -- 92
2020-07-05 04:00:00 22.3 5 Oeste 15 Oeste 0 -- -- 92
2020-07-05 03:00:00 22.2 0 Calma 9 Sudoeste 0 -- -- 95
2020-07-05 02:00:00 22.3 0 Calma 10 Sudoeste 0 -- -- 95
2020-07-05 01:00:00 22.5 9 Sudoeste 18 Sudoeste 0 -- -- 95
2020-07-05 00:00:00 22.7 0 Calma -- -- 0 -- -- 96
2020-07-04 23:00:00 23.2 0 Calma 7 Sudoeste 0 -- -- 90
2020-07-04 22:00:00 22.9 6 Sudoeste 9 Oeste 0 -- -- 94
2020-07-04 21:00:00 23.6 6 Oeste 19 Oeste 0 -- -- 91
2020-07-04 20:00:00 24 12 Oeste 21 Oeste 0 -- -- 86
2020-07-04 19:00:00 24.8 6 Sudoeste 12 Oeste 0 -- -- 83
2020-07-04 18:00:00 24.5 6 Sudoeste 16 Sudoeste 0 -- -- 84
2020-07-04 17:00:00 24.8 14 Sudoeste 18 Sudoeste 0 -- -- 83
2020-07-04 16:00:00 25.6 11 Oeste 18 Sudoeste 0 -- -- 77
2020-07-04 15:00:00 25.6 12 Sudoeste 22 Sudoeste 0 -- -- 84
2020-07-04 14:00:00 24.6 15 Sudoeste 21 Sudoeste 0 -- -- 84
2020-07-04 13:00:00 24.5 14 Sudoeste 22 Sudoeste 0 -- -- 82
2020-07-04 12:00:00 24.2 12 Oeste 20 Oeste 0 -- -- 83
2020-07-04 11:00:00 24.3 7 Oeste 16 Oeste 0 -- -- 84
2020-07-04 10:00:00 23.7 4 Oeste 15 Oeste 0 -- -- 87
2020-07-04 09:00:00 23 6 Oeste 15 Oeste 0 -- -- 90
2020-07-04 08:00:00 22.3 5 Oeste 14 Oeste 0 -- -- 95
2020-07-04 07:00:00 21.9 0 Calma 8 Oeste 0 -- -- 96
2020-07-04 06:00:00 21.9 0 Calma -- -- 0 -- -- 97
2020-07-04 05:00:00 22.2 0 Calma 9 Oeste 0 -- -- 96
2020-07-04 04:00:00 22.4 4 Oeste 12 Oeste 0 -- -- 95
2020-07-04 03:00:00 22.1 0 Calma 5 Noroeste 0 -- -- 96
2020-07-04 02:00:00 22.8 3 Oeste 12 Noroeste 0 -- -- 95
2020-07-04 01:00:00 22.9 0 Calma 12 Oeste 0 -- -- 93
2020-07-04 00:00:00 23.3 0 Calma 10 Sudoeste 0 -- -- 92
2020-07-03 23:00:00 23.1 8 Sudoeste 13 Sudoeste 0 -- -- 95
2020-07-03 22:00:00 23.1 9 Sudoeste 13 Sudoeste 0 -- -- 98
2020-07-03 21:00:00 24 5 Sudoeste 12 Sudoeste 0 -- -- 95
2020-07-03 20:00:00 24 11 Sudoeste 14 Sudoeste 0 -- -- 96
2020-07-03 19:00:00 24.8 9 Sudoeste 15 Sudoeste 0 -- -- 92
2020-07-03 18:00:00 24.7 12 Sudoeste 15 Sudoeste 0 -- -- 92
2020-07-03 17:00:00 24.4 12 Sudoeste 24 Oeste 0 -- -- 90
2020-07-03 16:00:00 25.3 13 Oeste 25 Oeste 0 -- -- 86
2020-07-03 15:00:00 25.6 13 Oeste 24 Oeste 0 -- -- 81
2020-07-03 14:00:00 25.5 11 Oeste 20 Sudoeste 0 -- -- 81
2020-07-03 13:00:00 25.6 9 Oeste 20 Sudoeste 0 -- -- 81
2020-07-03 12:00:00 24.5 13 Sudoeste 19 Sudoeste 0 -- -- 86
2020-07-03 11:00:00 24.7 8 Sudoeste 12 Sudoeste 0 -- -- 88
2020-07-03 10:00:00 23.7 9 Sudoeste 13 Sudoeste 0 -- -- 93
2020-07-03 09:00:00 22.8 0 Calma -- -- 0 -- -- 96
2020-07-03 08:00:00 21.6 0 Calma 9 Sur 0 -- -- 99
2020-07-03 07:00:00 22.6 0 Calma -- -- 0 -- -- 98
2020-07-03 06:00:00 22.2 0 Calma 18 Noroeste 0 -- -- 94
2020-07-03 05:00:00 22.3 5 Oeste 15 Oeste 0 -- -- 97
2020-07-03 04:00:00 22.4 3 Oeste 14 Noroeste 0 -- -- 95
2020-07-03 03:00:00 22.4 2 Oeste 14 Oeste 0 -- -- 98
2020-07-03 02:00:00 22.8 4 Oeste 12 Noroeste 0 -- -- 95
2020-07-03 01:00:00 22.7 0 Calma 12 Oeste 0 -- -- 96
2020-07-03 00:00:00 23.1 5 Oeste 16 Oeste 0 -- -- 94
2020-07-02 23:00:00 23.3 3 Oeste 17 Oeste 0 -- -- 90
2020-07-02 22:00:00 23.2 5 Oeste 13 Oeste 0 -- -- 96
2020-07-02 21:00:00 23.8 3 Sudoeste 13 Sudoeste 0 -- -- 90
2020-07-02 20:00:00 23.6 0 Calma -- -- 0 -- -- 90
2020-07-02 19:00:00 24.2 2 Sudoeste 17 Oeste 0 -- -- 89
2020-07-02 18:00:00 24.4 11 Oeste 26 Oeste 0 -- -- 89
2020-07-02 17:00:00 25.7 8 Sudoeste 12 Sudoeste 0 -- -- 84
2020-07-02 16:00:00 24.9 8 Sudoeste 18 Este 0 -- -- 87
2020-07-02 15:00:00 24.1 7 Sudeste 14 Este 0 -- -- 91
2020-07-02 14:00:00 24.1 9 Oeste 34 Oeste 0 -- -- 88
2020-07-02 13:00:00 24.3 22 Sudoeste 32 Sudoeste 0 -- -- 86
2020-07-02 12:00:00 25.7 2 Norte 11 Nordeste 0 -- -- 73
2020-07-02 11:00:00 24.3 6 Sudoeste 21 Sudeste 0 -- -- 85
2020-07-02 10:00:00 24.3 14 Este 23 Este 0 -- -- 80
2020-07-02 09:00:00 23.4 4 Nordeste 26 Sudoeste 0 -- -- 89
2020-07-02 08:00:00 22.4 23 Sudoeste 31 Sudoeste 0 -- -- 97
2020-07-02 07:00:00 22.5 2 Oeste 13 Oeste 0 -- -- 96
2020-07-02 06:00:00 22.2 0 Calma 6 Este 0 -- -- 99
2020-07-02 05:00:00 22.3 0 Calma 8 Oeste 0 -- -- 97
2020-07-02 04:00:00 22.8 6 Sur 13 Sur 0 -- -- 94
2020-07-02 03:00:00 22.8 8 Sur 12 Sudeste 0 -- -- 92
2020-07-02 02:00:00 23 0 Calma 5 Noroeste 0 -- -- 95
2020-07-02 01:00:00 23 0 Calma 15 Sudeste 0 -- -- 88
2020-07-02 00:00:00 23.3 2 Sudeste 13 Oeste 0 -- -- 95
2020-07-01 23:00:00 23.3 0 Calma 10 Oeste 0 -- -- 88
2020-07-01 22:00:00 23.5 5 Oeste 10 Oeste 0 -- -- 91
2020-07-01 21:00:00 23.2 6 Sudoeste 16 Sudoeste 0 -- -- 93
2020-07-01 20:00:00 23.8 10 Sudoeste 23 Oeste 0 -- -- 88
2020-07-01 19:00:00 24.8 10 Oeste 26 Oeste 0 -- -- 85
2020-07-01 18:00:00 25.6 7 Sudoeste 23 Oeste 0 -- -- 76
2020-07-01 17:00:00 25.5 4 Sudoeste 15 Sudoeste 0 -- -- 78
2020-07-01 16:00:00 25.5 9 Sudoeste 20 Sudoeste 0 -- -- 82
2020-07-01 15:00:00 25 13 Sudoeste 17 Sudoeste 0 -- -- 81
2020-07-01 14:00:00 24.6 11 Sudoeste 15 Sudoeste 0 -- -- 83
2020-07-01 13:00:00 24.8 10 Sudoeste 14 Sudoeste 0 -- -- 83
2020-07-01 12:00:00 24.4 10 Sudoeste 17 Sudoeste 0 -- -- 84
2020-07-01 11:00:00 23.8 8 Oeste 18 Oeste 0 -- -- 85
2020-07-01 10:00:00 23.7 5 Sudoeste 9 Sudoeste 0 -- -- 83
2020-07-01 09:00:00 23 0 Calma 10 Nordeste 0 -- -- 82
2020-07-01 08:00:00 21.7 6 Nordeste 10 Nordeste 0 -- -- 88
2020-07-01 07:00:00 21.5 0 Calma 5 Nordeste 0 -- -- 87
2020-07-01 06:00:00 21.5 3 Nordeste 12 Nordeste 0 -- -- 85
2020-07-01 05:00:00 22 8 Nordeste 18 Este 0 -- -- 83
2020-07-01 04:00:00 22.2 4 Nordeste 9 Este 0 -- -- 88
2020-07-01 03:00:00 22.4 2 Oeste 11 Noroeste 0 -- -- 91
2020-07-01 02:00:00 22 0 Calma 0 Calma 0 -- -- 90
2020-07-01 01:00:00 22.7 0 Calma 9 Este 0 -- -- 85
2020-07-01 00:00:00 22.7 6 Sudeste 11 Sudeste 0 -- -- 89
2020-06-30 23:00:00 23.4 2 Sudoeste 15 Oeste 0 -- -- 89
2020-06-30 22:00:00 23.8 4 Oeste 19 Oeste 0 -- -- 84
2020-06-30 21:00:00 24.2 6 Noroeste 18 Oeste 0 -- -- 77
2020-06-30 20:00:00 23.9 6 Oeste 21 Oeste 0 -- -- 85
2020-06-30 19:00:00 24.6 9 Oeste 20 Noroeste 0 -- -- 84
2020-06-30 18:00:00 25.6 12 Sudoeste 24 Sudoeste 0 -- -- 77
2020-06-30 17:00:00 26.2 9 Sudoeste 17 Oeste 0 -- -- 69
2020-06-30 16:00:00 25.6 10 Sudoeste 17 Sudoeste 0 -- -- 78
2020-06-30 15:00:00 25 14 Sudoeste 18 Sudoeste 0 -- -- 81
2020-06-30 14:00:00 24.8 16 Sudoeste 23 Sudoeste 0 -- -- 82
2020-06-30 13:00:00 24.8 13 Oeste 22 Oeste 0 -- -- 80
2020-06-30 12:00:00 25.1 8 Oeste 14 Sudoeste 0 -- -- 77
2020-06-30 11:00:00 24.5 5 Sudoeste 10 Sudoeste 0 -- -- 80
2020-06-30 10:00:00 23.6 0 Calma -- -- 0 -- -- 82
2020-06-30 09:00:00 23 0 Calma -- -- 0 -- -- 84
2020-06-30 08:00:00 21.5 0 Calma -- -- 0 -- -- 87
2020-06-30 07:00:00 20.5 0 Calma -- -- 0 -- -- 91
2020-06-30 06:00:00 21.4 0 Calma 6 Nordeste 0 -- -- 90
2020-06-30 05:00:00 21.5 0 Calma -- -- 0 -- -- 92
2020-06-30 04:00:00 21.5 0 Calma -- -- 0 -- -- 93
2020-06-30 03:00:00 21.5 0 Calma -- -- 0 -- -- 93
2020-06-30 02:00:00 22.4 0 Calma 6 Sudoeste 0 -- -- 93
2020-06-30 01:00:00 22.9 8 Sudoeste 10 Sudoeste 0 -- -- 89
2020-06-30 00:00:00 22.7 0 Calma -- -- 0 -- -- 87
2020-06-29 23:00:00 23.3 0 Calma 5 Sudoeste 0 -- -- 86
2020-06-29 22:00:00 23.3 5 Sur 13 Sudoeste 0 -- -- 87
2020-06-29 21:00:00 24 7 Oeste 17 Noroeste 0 -- -- 84
2020-06-29 20:00:00 24.3 9 Oeste 17 Sudoeste 0 -- -- 84
2020-06-29 19:00:00 24.6 13 Sudoeste 18 Oeste 0 -- -- 82
2020-06-29 18:00:00 24.8 14 Sudoeste 22 Oeste 0 -- -- 83
2020-06-29 17:00:00 26.3 11 Sudoeste 17 Sudoeste 0 -- -- 74
2020-06-29 16:00:00 25.5 12 Sudoeste 24 Sudoeste 0 -- -- 79
2020-06-29 15:00:00 25.6 19 Sudoeste 22 Sudoeste 0 -- -- 78
2020-06-29 14:00:00 25.1 13 Oeste 22 Sudoeste 0 -- -- 78
2020-06-29 13:00:00 24.7 13 Sudoeste 17 Sudoeste 0 -- -- 79
2020-06-29 12:00:00 25 13 Sudoeste 18 Oeste 0 -- -- 79
2020-06-29 11:00:00 24.2 11 Sudoeste 14 Oeste 0 -- -- 82
2020-06-29 10:00:00 24.1 5 Oeste 15 Oeste 0 -- -- 78
2020-06-29 09:00:00 23.9 2 Oeste 12 Oeste 0 -- -- 81
2020-06-29 08:00:00 21.4 0 Calma -- -- 0 -- -- 84
2020-06-29 07:00:00 19.7 0 Calma 7 Noroeste 0 -- -- 89
2020-06-29 06:00:00 20.7 2 Noroeste 7 Oeste 0 -- -- 88
2020-06-29 05:00:00 21 0 Calma -- -- 0 -- -- 91
2020-06-29 04:00:00 21.4 0 Calma -- -- 0 -- -- 92
2020-06-29 03:00:00 21.4 0 Calma 8 Oeste 0 -- -- 93
2020-06-29 02:00:00 22.6 0 Calma 9 Oeste 0 -- -- 90
2020-06-29 01:00:00 22.9 0 Calma -- -- 0 -- -- 87
2020-06-29 00:00:00 22.8 0 Calma 8 Oeste 0 -- -- 92
2020-06-28 23:00:00 23.3 2 Oeste 9 Noroeste 0 -- -- 89
2020-06-28 22:00:00 23.6 3 Oeste 15 Oeste 0 -- -- 88
2020-06-28 21:00:00 24.2 4 Oeste 10 Oeste 0 -- -- 81
2020-06-28 20:00:00 24.5 6 Sudoeste 19 Sudoeste 0 -- -- 79
2020-06-28 19:00:00 24.9 15 Sudoeste 19 Sudoeste 0 -- -- 83
2020-06-28 18:00:00 25.2 10 Sudoeste 27 Oeste 0 -- -- 79
2020-06-28 17:00:00 26.1 9 Sudoeste 17 Sudoeste 0 -- -- 77
2020-06-28 16:00:00 25.7 13 Sudoeste 17 Sudoeste 0 -- -- 78
2020-06-28 15:00:00 25.6 14 Sudoeste 21 Oeste 0 -- -- 78
2020-06-28 14:00:00 25.5 12 Oeste 22 Oeste 0 -- -- 78
2020-06-28 13:00:00 25.5 7 Oeste 16 Oeste 0 -- -- 77
2020-06-28 12:00:00 24.3 12 Sudoeste 14 Sudoeste 0 -- -- 81
2020-06-28 11:00:00 24.3 8 Sudoeste 10 Sudoeste 0 -- -- 79
2020-06-28 10:00:00 23.2 5 Sur 12 Este 0 -- -- 81
2020-06-28 09:00:00 23.1 3 Nordeste 6 Nordeste 0 -- -- 80
2020-06-28 08:00:00 20.7 0 Calma 0 Calma 0 -- -- 85
2020-06-28 07:00:00 20 0 Calma 5 Nordeste 0 -- -- 88
2020-06-28 06:00:00 20 0 Calma 0 Calma 0 -- -- 88
2020-06-28 05:00:00 20.5 0 Calma -- -- 0 -- -- 87
2020-06-28 04:00:00 21.1 0 Calma -- -- 0 -- -- 89
2020-06-28 03:00:00 21.1 0 Calma 4 Noroeste 0 -- -- 87
2020-06-28 02:00:00 21.7 0 Calma 3 Nordeste 0 -- -- 87
2020-06-28 01:00:00 22.3 0 Calma 3 Este 0 -- -- 84
2020-06-28 00:00:00 22.1 0 Calma 7 Oeste 0 -- -- 86
2020-06-27 23:00:00 23 2 Oeste 13 Oeste 0 -- -- 82
2020-06-27 22:00:00 23.1 6 Oeste 13 Sudoeste 0 -- -- 82
2020-06-27 21:00:00 23.2 4 Oeste 13 Oeste 0 -- -- 84
2020-06-27 20:00:00 23.7 6 Oeste 14 Sudoeste 0 -- -- 78
2020-06-27 19:00:00 24.1 12 Sudoeste 21 Sudoeste 0 -- -- 78
2020-06-27 18:00:00 24.7 13 Oeste 21 Oeste 0 -- -- 76
2020-06-27 17:00:00 24.5 13 Sudoeste 20 Sudoeste 0 -- -- 80
2020-06-27 16:00:00 24.4 15 Sudoeste 21 Sudoeste 0 -- -- 76
2020-06-27 15:00:00 24.6 16 Sudoeste 20 Oeste 0 -- -- 76
2020-06-27 14:00:00 24.5 12 Oeste 19 Oeste 0 -- -- 76
2020-06-27 13:00:00 24.3 10 Oeste 17 Oeste 0 -- -- 75
2020-06-27 12:00:00 24.1 10 Sudoeste 16 Oeste 0 -- -- 76
2020-06-27 11:00:00 23.9 8 Sudoeste 15 Sudoeste 0 -- -- 78
2020-06-27 10:00:00 23.1 10 Este 19 Este 0 -- -- 76
2020-06-27 09:00:00 22.4 14 Nordeste 21 Este 0 -- -- 77
2020-06-27 08:00:00 21.6 9 Nordeste 18 Nordeste 0 -- -- 80
2020-06-27 07:00:00 20.3 3 Nordeste 8 Nordeste 0 -- -- 87
2020-06-27 06:00:00 20.5 0 Calma 7 Norte 0 -- -- 88
2020-06-27 05:00:00 20.9 3 Norte 6 Norte 0 -- -- 84
2020-06-27 04:00:00 21.1 0 Calma 7 Nordeste 0 -- -- 84
2020-06-27 03:00:00 21.1 4 Nordeste 6 Nordeste 0 -- -- 83
2020-06-27 02:00:00 21.4 0 Calma 3 Norte 0 -- -- 89
2020-06-27 01:00:00 22.2 0 Calma 6 Oeste 0 -- -- 88
2020-06-27 00:00:00 22.7 0 Calma 5 Noroeste 0 -- -- 86
2020-06-26 23:00:00 23 0 Calma 5 Este 0 -- -- 82
2020-06-26 22:00:00 23.2 4 Sudoeste 17 Sudoeste 0 -- -- 84
2020-06-26 21:00:00 23.4 15 Sudoeste 18 Sudoeste 0 -- -- 88
2020-06-26 20:00:00 24.1 7 Oeste 22 Oeste 0 -- -- 82
2020-06-26 19:00:00 25.3 7 Oeste 21 Sudoeste 0 -- -- 77
2020-06-26 18:00:00 24.9 17 Sudoeste 21 Sudoeste 0 -- -- 80
2020-06-26 17:00:00 24.8 16 Sudoeste 24 Oeste 0 -- -- 77
2020-06-26 16:00:00 26.5 10 Sudoeste 18 Sudoeste 0 -- -- 67
2020-06-26 15:00:00 25.2 15 Sudoeste 21 Oeste 0 -- -- 73
2020-06-26 14:00:00 25 14 Sudoeste 22 Sudoeste 0 -- -- 74
2020-06-26 13:00:00 25.3 14 Oeste 21 Oeste 0 -- -- 73
2020-06-26 12:00:00 24.4 8 Oeste 15 Oeste 0 -- -- 77
2020-06-26 11:00:00 23.6 9 Sudoeste 12 Sudoeste 0 -- -- 79
2020-06-26 10:00:00 23.7 6 Sudoeste 11 Sudoeste 0 -- -- 78
2020-06-26 09:00:00 22.7 2 Sudeste 6 Este 0 -- -- 83
2020-06-26 08:00:00 21.3 0 Calma 8 Noroeste 0 -- -- 83
2020-06-26 07:00:00 19.9 0 Calma 0 Calma 0 -- -- 86
2020-06-26 06:00:00 20 0 Calma 5 Noroeste 0 -- -- 86
2020-06-26 05:00:00 20.3 0 Calma -- -- 0 -- -- 86
2020-06-26 04:00:00 21 0 Calma 6 Sudoeste 0 -- -- 88
2020-06-26 03:00:00 22 0 Calma 7 Sudoeste 0 -- -- 86
2020-06-26 02:00:00 21.9 0 Calma 4 Oeste 0 -- -- 85
2020-06-26 01:00:00 22.4 0 Calma 13 Oeste 0 -- -- 86
2020-06-26 00:00:00 23.1 7 Oeste 15 Oeste 0 -- -- 85
2020-06-25 23:00:00 22.9 5 Este 10 Este 0 -- -- 78
2020-06-25 22:00:00 23.3 0 Calma 15 Oeste 0 -- -- 80
2020-06-25 21:00:00 23.8 8 Oeste 19 Oeste 0 -- -- 82
2020-06-25 20:00:00 24.2 10 Sudoeste 13 Sudoeste 0 -- -- 78
2020-06-25 19:00:00 25.6 5 Oeste 17 Sudoeste 0 -- -- 70
2020-06-25 18:00:00 25.5 17 Sudoeste 29 Sudoeste 0 -- -- 74
2020-06-25 17:00:00 25.6 18 Sudoeste 28 Oeste 0 -- -- 76
2020-06-25 16:00:00 25.6 12 Oeste 27 Oeste 0 -- -- 75
2020-06-25 15:00:00 25.6 15 Sudoeste 27 Sur 0 -- -- 77
2020-06-25 14:00:00 25.2 19 Sur 23 Sudoeste 0 -- -- 76
2020-06-25 13:00:00 24.9 13 Sudoeste 22 Sudoeste 0 -- -- 71
2020-06-25 12:00:00 24.4 11 Oeste 19 Sudoeste 0 -- -- 72
2020-06-25 11:00:00 24.5 5 Oeste 18 Sudeste 0 -- -- 71
2020-06-25 10:00:00 23 14 Sudeste 17 Sudeste 0 -- -- 81
2020-06-25 09:00:00 23.3 2 Sudoeste 9 Sudoeste 0 -- -- 77
2020-06-25 08:00:00 21.9 0 Calma -- -- 0 -- -- 81
2020-06-25 07:00:00 20.5 0 Calma 3 Nordeste 0 -- -- 86
2020-06-25 06:00:00 20.7 0 Calma 5 Nordeste 0 -- -- 88
2020-06-25 05:00:00 20.9 4 Nordeste 7 Nordeste 0 -- -- 87
2020-06-25 04:00:00 20.8 0 Calma 3 Noroeste 0 -- -- 87
2020-06-25 03:00:00 21.3 0 Calma -- -- 0 -- -- 88
2020-06-25 02:00:00 22.4 0 Calma 6 Sudoeste 0 -- -- 84
2020-06-25 01:00:00 22.5 0 Calma 10 Oeste 0 -- -- 82
2020-06-25 00:00:00 22.8 3 Noroeste 19 Sur 0 -- -- 82
2020-06-24 23:00:00 23 15 Sur 19 Sur 0 -- -- 87
2020-06-24 22:00:00 23.3 7 Sudoeste 20 Oeste 0 -- -- 83
2020-06-24 21:00:00 23.8 5 Oeste 17 Oeste 0 -- -- 83
2020-06-24 20:00:00 24.3 5 Oeste 19 Sudoeste 0 -- -- 77
2020-06-24 19:00:00 24.3 17 Sudoeste 21 Sudoeste 0 -- -- 80
2020-06-24 18:00:00 25.5 11 Sudoeste 28 Oeste 0 -- -- 74
2020-06-24 17:00:00 26.3 13 Oeste 29 Oeste 0 -- -- 66
2020-06-24 16:00:00 25.9 11 Sudeste 15 Sudeste 0 -- -- 73
2020-06-24 15:00:00 25 15 Sudoeste 21 Sur 0 -- -- 78
2020-06-24 14:00:00 25.6 13 Sudoeste 23 Oeste 0 -- -- 71
2020-06-24 13:00:00 24.6 14 Oeste 24 Oeste 0 -- -- 76
2020-06-24 12:00:00 24.4 7 Oeste 15 Sudoeste 0 -- -- 77
2020-06-24 11:00:00 23.5 6 Sudeste 11 Sudeste 0 -- -- 83
2020-06-24 10:00:00 23.4 5 Sudoeste 13 Sudoeste 0 -- -- 81
2020-06-24 09:00:00 22.7 0 Calma -- -- 0 -- -- 84
2020-06-24 08:00:00 21.9 0 Calma -- -- 0 -- -- 88
2020-06-24 07:00:00 21 0 Calma -- -- 0 -- -- 92
2020-06-24 06:00:00 20.6 0 Calma -- -- 0 -- -- 92
2020-06-24 05:00:00 21.1 0 Calma -- -- 0 -- -- 90
2020-06-24 04:00:00 20.9 0 Calma -- -- 0 -- -- 88
2020-06-24 03:00:00 21.6 0 Calma -- -- 0 -- -- 85
2020-06-24 02:00:00 22.4 0 Calma -- -- 0 -- -- 86
2020-06-24 01:00:00 22.4 0 Calma -- -- 0 -- -- 82
2020-06-24 00:00:00 22.9 0 Calma 12 Noroeste 0 -- -- 82
2020-06-23 23:00:00 23.1 0 Calma 8 Oeste 0 -- -- 84
2020-06-23 22:00:00 23.4 0 Calma 9 Sudoeste 0 -- -- 85
2020-06-23 21:00:00 23.6 2 Sudoeste 9 Sudoeste 0 -- -- 85
2020-06-23 20:00:00 24 5 Sudoeste 15 Sudoeste 0 -- -- 83
2020-06-23 19:00:00 24.8 9 Sudoeste 15 Oeste 0 -- -- 81
2020-06-23 18:00:00 25.2 12 Sudoeste 20 Sudoeste 0 -- -- 78
2020-06-23 17:00:00 25.5 13 Oeste 18 Oeste 0 -- -- 77
2020-06-23 16:00:00 25.7 12 Sudoeste 19 Sudoeste 0 -- -- 77
2020-06-23 15:00:00 24.7 14 Sudoeste 18 Sudoeste 0 -- -- 80
2020-06-23 14:00:00 25.5 11 Sudoeste 20 Oeste 0 -- -- 77
2020-06-23 13:00:00 25 10 Oeste 18 Sudoeste 0 -- -- 79
2020-06-23 12:00:00 24.1 11 Sudoeste 14 Sudoeste 0 -- -- 83
2020-06-23 11:00:00 23.8 6 Sudoeste 11 Sudoeste 0 -- -- 83
2020-06-23 10:00:00 23.4 7 Oeste 14 Noroeste 0 -- -- 85
2020-06-23 09:00:00 22.8 0 Calma -- -- 0 -- -- 87
2020-06-23 08:00:00 21.4 0 Calma -- -- 0 -- -- 89
2020-06-23 07:00:00 20.5 0 Calma -- -- 0 -- -- 90
2020-06-23 06:00:00 20.8 0 Calma -- -- 0 -- -- 89
2020-06-23 05:00:00 21 0 Calma -- -- 0 -- -- 85
2020-06-23 04:00:00 21.4 0 Calma -- -- 0 -- -- 88
2020-06-23 03:00:00 22.1 0 Calma -- -- 0 -- -- 91
2020-06-23 02:00:00 22.3 0 Calma 8 Oeste 0 -- -- 89
2020-06-23 01:00:00 22.5 0 Calma 9 Oeste 0 -- -- 92
2020-06-23 00:00:00 22.8 0 Calma -- -- 0 -- -- 92
2020-06-22 23:00:00 22.8 0 Calma -- -- 0 -- -- 88
2020-06-22 22:00:00 23 0 Calma 8 Sudoeste 0 -- -- 87
2020-06-22 21:00:00 23.2 8 Sudoeste 15 Sudoeste 0 -- -- 87
2020-06-22 20:00:00 23.8 13 Sudoeste 19 Sudoeste 0 -- -- 87
2020-06-22 19:00:00 24.7 12 Sudoeste 22 Oeste 0 -- -- 81
2020-06-22 18:00:00 25.5 11 Sudoeste 18 Sudoeste 0 -- -- 80
2020-06-22 17:00:00 25.3 12 Sudoeste 14 Sudoeste 0 -- -- 81
2020-06-22 16:00:00 25.6 13 Sudoeste 15 Sudoeste 0 -- -- 78
2020-06-22 15:00:00 25.2 12 Sudoeste 17 Sudoeste 0 -- -- 78
2020-06-22 14:00:00 25.5 11 Sudoeste 19 Oeste 0 -- -- 78
2020-06-22 13:00:00 24.8 8 Oeste 18 Oeste 0 -- -- 80
2020-06-22 12:00:00 24.9 7 Oeste 15 Sudoeste 0 -- -- 80
2020-06-22 11:00:00 24.3 0 Calma -- -- 0 -- -- 82
2020-06-22 10:00:00 23.3 0 Calma -- -- 0 -- -- 84
2020-06-22 09:00:00 22.8 0 Calma -- -- 0 -- -- 89
2020-06-22 08:00:00 20.4 0 Calma -- -- 0 -- -- 95
2020-06-22 07:00:00 19.6 0 Calma -- -- 0 -- -- 99
2020-06-22 06:00:00 20.1 0 Calma -- -- 0 -- -- 99
2020-06-22 05:00:00 20.5 0 Calma -- -- 0 -- -- 99
2020-06-22 04:00:00 20.5 0 Calma -- -- 0 -- -- 98
2020-06-22 03:00:00 21.2 0 Calma -- -- 0 -- -- 96
2020-06-22 02:00:00 21.9 0 Calma 6 Oeste 0 -- -- 94
2020-06-22 01:00:00 22.4 0 Calma 10 Noroeste 0 -- -- 93
2020-06-22 00:00:00 22.6 2 Oeste 12 Oeste 0 -- -- 93
2020-06-21 23:00:00 22.9 2 Oeste 9 Oeste 0 -- -- 90
2020-06-21 22:00:00 23 6 Sudoeste 9 Sur 0 -- -- 87
2020-06-21 21:00:00 23.1 6 Sur 10 Sudoeste 0 -- -- 87
2020-06-21 20:00:00 23.8 9 Sudoeste 18 Sudoeste 0 -- -- 85
2020-06-21 19:00:00 24.7 12 Oeste 17 Sudoeste 0 -- -- 80
2020-06-21 18:00:00 24.7 14 Sudoeste 19 Sudoeste 0 -- -- 82
2020-06-21 17:00:00 24.9 12 Sudoeste 18 Sudoeste 0 -- -- 77
2020-06-21 16:00:00 24.8 14 Sudoeste 21 Sudoeste 0 -- -- 79
2020-06-21 15:00:00 24.3 17 Sudoeste 21 Sudoeste 0 -- -- 80
2020-06-21 14:00:00 25.2 13 Oeste 22 Oeste 0 -- -- 75
2020-06-21 13:00:00 24.6 15 Sudoeste 20 Sudoeste 0 -- -- 78
2020-06-21 12:00:00 24 16 Sudoeste 20 Sudoeste 0 -- -- 81
2020-06-21 11:00:00 23.6 13 Sudoeste 16 Sudoeste 0 -- -- 83
2020-06-21 10:00:00 22.8 7 Sudoeste 10 Sudoeste 0 -- -- 85
2020-06-21 09:00:00 23.2 2 Sudoeste 8 Oeste 0 -- -- 84
2020-06-21 08:00:00 21.6 0 Calma 5 Noroeste 0 -- -- 84
2020-06-21 07:00:00 20.8 0 Calma 5 Nordeste 0 -- -- 82
2020-06-21 06:00:00 21.4 4 Nordeste 10 Nordeste 0 -- -- 78
2020-06-21 05:00:00 21.7 5 Nordeste 10 Nordeste 0 -- -- 79
2020-06-21 04:00:00 22.4 4 Nordeste 20 Este 0 -- -- 79
2020-06-21 03:00:00 22.7 0 Calma 11 Sudoeste 0 -- -- 87
2020-06-21 02:00:00 22.4 0 Calma 10 Oeste 0 -- -- 89
2020-06-21 01:00:00 22.4 0 Calma -- -- 0 -- -- 86
2020-06-21 00:00:00 22.8 0 Calma 4 Sudoeste 0 -- -- 86
2020-06-20 23:00:00 23.4 3 Sudoeste 11 Sudoeste 0 -- -- 83
2020-06-20 22:00:00 23.6 6 Sudoeste 13 Sudoeste 0 -- -- 82
2020-06-20 21:00:00 23.7 5 Oeste 15 Sudoeste 0 -- -- 83
2020-06-20 20:00:00 24 10 Oeste 19 Oeste 0 -- -- 79
2020-06-20 19:00:00 24.6 11 Oeste 21 Oeste 0 -- -- 77
2020-06-20 18:00:00 25.8 8 Oeste 16 Sudoeste 0 -- -- 71
2020-06-20 17:00:00 25.6 10 Sudoeste 15 Sudoeste 0 -- -- 72
2020-06-20 16:00:00 25.3 10 Sudoeste 19 Sudoeste 0 -- -- 76
2020-06-20 15:00:00 24.9 17 Sudoeste 19 Oeste 0 -- -- 76
2020-06-20 14:00:00 25.2 13 Sudoeste 19 Sudoeste 0 -- -- 74
2020-06-20 13:00:00 24.9 15 Sudoeste 19 Sudoeste 0 -- -- 74
2020-06-20 12:00:00 24.7 12 Sudoeste 16 Sudoeste 0 -- -- 75
2020-06-20 11:00:00 24.1 12 Sudoeste 14 Sudoeste 0 -- -- 78
2020-06-20 10:00:00 24.1 5 Sudoeste 14 Nordeste 0 -- -- 76
2020-06-20 09:00:00 23.6 3 Nordeste 6 Nordeste 0 -- -- 75
2020-06-20 08:00:00 21.1 2 Norte 7 Nordeste 0 -- -- 83
2020-06-20 07:00:00 20.5 0 Calma 6 Norte 0 -- -- 87
2020-06-20 06:00:00 20.7 0 Calma 6 Noroeste 0 -- -- 86
2020-06-20 05:00:00 21.4 0 Calma 9 Nordeste 0 -- -- 80
2020-06-20 04:00:00 22.3 5 Nordeste 14 Este 0 -- -- 76
2020-06-20 03:00:00 22.5 8 Nordeste 22 Nordeste 0 -- -- 77
2020-06-20 02:00:00 22.6 17 Nordeste 27 Nordeste 0 -- -- 77
2020-06-20 01:00:00 22.4 0 Calma 17 Nordeste 0 -- -- 84
2020-06-20 00:00:00 22.6 0 Calma -- -- 0 -- -- 86
2020-06-19 23:00:00 23 0 Calma 8 Sudeste 0 -- -- 85
2020-06-19 22:00:00 23.4 0 Calma 16 Sudoeste 0 -- -- 84
2020-06-19 21:00:00 23.5 13 Sudoeste 17 Sudoeste 0 -- -- 86
2020-06-19 20:00:00 23.8 10 Sudoeste 18 Sudoeste 0 -- -- 86
2020-06-19 19:00:00 24.1 14 Sudoeste 22 Oeste 0 -- -- 85
2020-06-19 18:00:00 25.4 15 Sudoeste 25 Sudoeste 0 -- -- 78
2020-06-19 17:00:00 25.6 14 Oeste 24 Oeste 0 -- -- 75
2020-06-19 16:00:00 25.5 16 Sudoeste 24 Oeste 0 -- -- 77
2020-06-19 15:00:00 25.3 12 Oeste 29 Oeste 0 -- -- 76
2020-06-19 14:00:00 24.7 15 Oeste 28 Oeste 0 -- -- 77
2020-06-19 13:00:00 24.3 8 Oeste 26 Oeste 0 -- -- 80
2020-06-19 12:00:00 24.1 8 Oeste 27 Oeste 0 -- -- 80
2020-06-19 11:00:00 23.9 9 Oeste 31 Este 0 -- -- 79
2020-06-19 10:00:00 24.8 8 Nordeste 37 Nordeste 0 -- -- 65
2020-06-19 09:00:00 23.7 7 Nordeste 18 Nordeste 0 -- -- 73
2020-06-19 08:00:00 20.5 0 Calma 8 Nordeste 0 -- -- 80
2020-06-19 07:00:00 20.4 0 Calma 10 Nordeste 0 -- -- 79
2020-06-19 06:00:00 20.7 0 Calma 10 Este 0 -- -- 83
2020-06-19 05:00:00 21.3 0 Calma 13 Este 0 -- -- 83
2020-06-19 04:00:00 22.5 9 Nordeste 18 Nordeste 0 -- -- 77
2020-06-19 03:00:00 21.9 0 Calma 10 Nordeste 0 -- -- 83
2020-06-19 02:00:00 22.4 0 Calma 9 Este 0 -- -- 83
2020-06-19 01:00:00 22.6 0 Calma 9 Oeste 0 -- -- 84
2020-06-19 00:00:00 23.2 0 Calma 7 Sudoeste 0 -- -- 84
2020-06-18 23:00:00 23.1 0 Calma -- -- 0 -- -- 84
2020-06-18 22:00:00 23.4 0 Calma -- -- 0 -- -- 79
2020-06-18 21:00:00 23.6 0 Calma 12 Sur 0 -- -- 80
2020-06-18 20:00:00 23.7 10 Sur 18 Sur 0 -- -- 83
2020-06-18 19:00:00 24.6 14 Sudoeste 20 Oeste 0 -- -- 79
2020-06-18 18:00:00 25.4 10 Oeste 24 Oeste 0 -- -- 77
2020-06-18 17:00:00 25.6 12 Oeste 24 Noroeste 0 -- -- 76
2020-06-18 16:00:00 26.4 9 Sudoeste 21 Sudoeste 0 -- -- 76
2020-06-18 15:00:00 25.1 15 Sur 21 Sur 0 -- -- 79
2020-06-18 14:00:00 24.3 15 Sur 18 Sudeste 0 -- -- 84
2020-06-18 13:00:00 24.5 14 Sur 17 Sur 0 -- -- 89
2020-06-18 12:00:00 24.4 13 Sur 15 Sur 0 -- -- 88
2020-06-18 11:00:00 24 8 Sur 9 Sur 0 -- -- 90
2020-06-18 10:00:00 23.7 0 Calma 7 Sudeste 0 -- -- 91
2020-06-18 09:00:00 23.1 4 Sudeste 8 Sudeste 0 -- -- 93
2020-06-18 08:00:00 22.3 0 Calma -- -- 0 -- -- 92
2020-06-18 07:00:00 21.2 0 Calma -- -- 0 -- -- 96
2020-06-18 06:00:00 21.5 0 Calma -- -- 0 -- -- 96
2020-06-18 05:00:00 21.8 0 Calma -- -- 0 -- -- 97
2020-06-18 04:00:00 22.3 0 Calma 7 Sudoeste 0 -- -- 97
2020-06-18 03:00:00 22.7 0 Calma -- -- 0 -- -- 97
2020-06-18 02:00:00 22.8 0 Calma -- -- 0 -- -- 98
2020-06-18 01:00:00 22.8 0 Calma 5 Sudoeste 0 -- -- 97
2020-06-18 00:00:00 22.9 4 Este 7 Este 0 -- -- 97
2020-06-17 23:00:00 23 6 Este 14 Este 0 -- -- 94
2020-06-17 22:00:00 23.2 11 Este 15 Este 0 -- -- 93
2020-06-17 21:00:00 23 8 Sudeste 12 Sudeste 0 -- -- 96
2020-06-17 20:00:00 23.1 12 Sudeste 14 Este 0 -- -- 95
2020-06-17 19:00:00 24.1 12 Este 15 Este 0 -- -- 93
2020-06-17 18:00:00 23.7 12 Sudeste 16 Este 0 -- -- 93
2020-06-17 17:00:00 24.2 14 Este 22 Este 0 -- -- 91
2020-06-17 16:00:00 24.8 20 Este 26 Este 0 -- -- 87
2020-06-17 15:00:00 24.4 20 Este 25 Este 0 -- -- 90
2020-06-17 14:00:00 25.5 17 Este 23 Este 0 -- -- 82
2020-06-17 13:00:00 24.5 8 Este 24 Este 0 -- -- 82
2020-06-17 12:00:00 25.5 6 Nordeste 13 Nordeste 0 -- -- 77
2020-06-17 11:00:00 24.8 3 Nordeste 15 Este 0 -- -- 80
2020-06-17 10:00:00 24.2 9 Este 16 Este 0 -- -- 85
2020-06-17 09:00:00 23.8 4 Nordeste 7 Norte 0 -- -- 91
2020-06-17 08:00:00 22.5 0 Calma 10 Este 0 -- -- 99
2020-06-17 07:00:00 22.5 3 Nordeste 18 Este 0 -- -- 99
2020-06-17 06:00:00 22.5 12 Este 22 Este 0 -- -- 99
2020-06-17 05:00:00 22.7 12 Nordeste 22 Nordeste 0 -- -- 99
2020-06-17 04:00:00 22.8 8 Sudeste 21 Este 0 -- -- 99
2020-06-17 03:00:00 23.2 0 Calma 8 Noroeste 0 -- -- 94
2020-06-17 02:00:00 23 0 Calma 10 Oeste 0 -- -- 99
2020-06-17 01:00:00 23.1 0 Calma 10 Oeste 0 -- -- 97
2020-06-17 00:00:00 22.9 0 Calma 13 Oeste 0 -- -- 99
2020-06-16 23:00:00 23.3 4 Oeste 15 Oeste 0 -- -- 95
2020-06-16 22:00:00 23.6 4 Oeste 12 Oeste 0 -- -- 93
2020-06-16 21:00:00 23.4 2 Oeste 11 Oeste 0 -- -- 93
2020-06-16 20:00:00 23.4 3 Oeste 21 Sudoeste 0 -- -- 94
2020-06-16 19:00:00 23.7 10 Oeste 18 Sudoeste 0 -- -- 94
2020-06-16 18:00:00 25.3 0 Calma 30 Este 0 -- -- 86
2020-06-16 17:00:00 24.7 24 Este 32 Este 0 -- -- 89
2020-06-16 16:00:00 24.2 16 Este 30 Este 0 -- -- 90
2020-06-16 15:00:00 24.6 22 Este 32 Este 0 -- -- 88
2020-06-16 14:00:00 25.7 25 Este 34 Este 0 -- -- 76
2020-06-16 13:00:00 24.9 27 Este 34 Este 0 -- -- 80
2020-06-16 12:00:00 24.6 27 Este 32 Este 0 -- -- 81
2020-06-16 11:00:00 26.2 24 Este 32 Este 0 -- -- 61
2020-06-16 10:00:00 24.7 20 Nordeste -- -- -- -- -- 68
2020-06-16 09:00:00 -3 19 Nordeste 28 Este 0 -- -- 74
2020-06-16 08:00:00 7.7 15 Nordeste 26 Nordeste 0 -- -- 79
2020-06-16 07:00:00 0.7 6 Nordeste 16 Este 0 -- -- 93
2020-06-16 06:00:00 18.9 0 Calma -- -- 0 -- -- 99
2020-06-16 05:00:00 11.6 0 Calma 14 Sur 0 -- -- 98
2020-06-16 04:00:00 -2.2 10 Sur 14 Sur 0 -- -- 98
2020-06-16 03:00:00 21.1 0 Calma 5 Oeste 0 -- -- 95
2020-06-16 02:00:00 19.8 0 Calma 11 Oeste 0 -- -- 95
2020-06-16 01:00:00 5.3 5 Oeste 13 Oeste 0 -- -- 98
2020-06-16 00:00:00 22.3 3 Oeste 19 Nordeste 0 -- -- 95
2020-06-15 23:00:00 23.2 7 Nordeste 13 Este 0 -- -- 91
2020-06-15 22:00:00 -- 0 Calma 6 Este 0 -- -- 86
2020-06-15 21:00:00 23.6 2 Sur 5 Sudoeste 0 -- -- 87
2020-06-15 20:00:00 23.8 2 Sur 10 Sur 0 -- -- 85
2020-06-15 19:00:00 23.8 6 Sudeste 13 Sur 0 -- -- 87
2020-06-15 18:00:00 24.1 5 Sur 11 Sudoeste 0 -- -- 86
2020-06-15 17:00:00 24.4 4 Sur 11 Sur 0 -- -- 86
2020-06-15 16:00:00 24.6 8 Sur 12 Sur 0 -- -- 87
2020-06-15 15:00:00 24 10 Sudeste 12 Sudeste 0 -- -- 88
2020-06-15 14:00:00 24.5 9 Sudoeste 18 Oeste 0 -- -- 86
2020-06-15 13:00:00 24 10 Oeste 21 Oeste 0 -- -- 87
2020-06-15 12:00:00 2.9 13 Sudoeste 16 Sudoeste 0 -- -- 89
2020-06-15 11:00:00 12.9 8 Sudoeste 18 Sudoeste 0 -- -- 88
2020-06-15 10:00:00 17.1 10 Este 28 Nordeste 0 -- -- 82
2020-06-15 09:00:00 16.3 23 Nordeste 33 Nordeste 0 -- -- 72
2020-06-15 08:00:00 15.9 26 Este 33 Este 0 -- -- 76
2020-06-15 07:00:00 15.2 17 Este 25 Nordeste 0 -- -- 76
2020-06-15 06:00:00 15.3 16 Nordeste 25 Nordeste 0 -- -- 80
2020-06-15 05:00:00 16 17 Nordeste 27 Este 0 -- -- 88
2020-06-15 04:00:00 12.8 23 Este 38 Nordeste 0 -- -- 86
2020-06-15 03:00:00 13 26 Nordeste 36 Nordeste 0 -- -- 84
2020-06-15 02:00:00 13.3 22 Nordeste 40 Este 0 -- -- 90
2020-06-15 01:00:00 11.4 26 Nordeste 37 Este 0 -- -- 92
2020-06-15 00:00:00 7.4 0 Calma 25 Nordeste 0.1 -- -- 87
2020-06-14 23:00:00 7.8 17 Nordeste 27 Este 0 -- -- 87
2020-06-14 22:00:00 7.9 18 Nordeste 39 Nordeste 0 -- -- 82
2020-06-14 21:00:00 9.7 18 Este 23 Este 0 -- -- 87
2020-06-14 20:00:00 13.3 10 Oeste 21 Oeste 0 -- -- 87
2020-06-14 19:00:00 10 6 Oeste 27 Nordeste 0 -- -- 80
2020-06-14 18:00:00 23.6 20 Nordeste 26 Este 0 -- -- 73
2020-06-14 17:00:00 22.9 17 Este 28 Este 0 -- -- 76
2020-06-14 16:00:00 23 21 Este 32 Este 0 -- -- 75
2020-06-14 15:00:00 23.1 25 Este 37 Este 0 -- -- 69
2020-06-14 14:00:00 23.6 29 Este 38 Este 0 -- -- 75
2020-06-14 13:00:00 23.3 34 Este 43 Este 0 -- -- 78
2020-06-14 12:00:00 24 35 Este 42 Este 0 -- -- 72
2020-06-14 11:00:00 23.4 32 Este 40 Este 0 -- -- 73
2020-06-14 10:00:00 23.4 30 Este 37 Este 0 -- -- 69
2020-06-14 09:00:00 22.2 21 Nordeste 30 Nordeste 0 -- -- 77
2020-06-14 08:00:00 20.7 6 Nordeste 11 Nordeste 0 -- -- 80
2020-06-14 07:00:00 18.9 2 Norte 6 Norte 0 -- -- 80
2020-06-14 06:00:00 19.6 2 Nordeste 18 Nordeste 0 -- -- 77
2020-06-14 05:00:00 20.5 13 Nordeste 22 Nordeste 0 -- -- 79
2020-06-14 04:00:00 20.2 5 Nordeste 13 Este 0 -- -- 81
2020-06-14 03:00:00 20.3 0 Calma 8 Sudeste 0 -- -- 80
2020-06-14 02:00:00 20.6 0 Calma 12 Este 0 -- -- 78
2020-06-14 01:00:00 19.9 3 Nordeste 9 Nordeste 0 -- -- 79
2020-06-14 00:00:00 21 0 Calma 10 Oeste 0 -- -- 78
2020-06-13 23:00:00 21.8 2 Oeste 10 Nordeste 0 -- -- 76
2020-06-13 22:00:00 22.2 0 Calma 29 Este 0 -- -- 75
2020-06-13 21:00:00 22.5 19 Este 29 Este 0 -- -- 71
2020-06-13 20:00:00 22.3 21 Este 26 Este 0 -- -- 74
2020-06-13 19:00:00 22.8 15 Este 19 Este 0 -- -- 71
2020-06-13 18:00:00 23 5 Sudeste 10 Este 0 -- -- 67
2020-06-13 17:00:00 22.9 8 Sudeste 13 Sudeste 0 -- -- 68
2020-06-13 16:00:00 23.1 11 Este 18 Sudeste 0 -- -- 70
2020-06-13 15:00:00 23.1 17 Este 26 Este 0 -- -- 71
2020-06-13 14:00:00 23 24 Este 32 Este 0 -- -- 75
2020-06-13 13:00:00 22.4 22 Este 28 Este 0 -- -- 74
2020-06-13 12:00:00 22.4 23 Este 34 Este 0 -- -- 72
2020-06-13 11:00:00 22.3 25 Este 31 Este 0 -- -- 70
2020-06-13 10:00:00 21.8 19 Nordeste 27 Nordeste 0 -- -- 70
2020-06-13 09:00:00 21.1 19 Nordeste 28 Nordeste 0 -- -- 72
2020-06-13 08:00:00 20.9 10 Nordeste 27 Nordeste 0 -- -- 70
2020-06-13 07:00:00 20.5 16 Nordeste 22 Nordeste 0 -- -- 76
2020-06-13 06:00:00 20.4 10 Este 24 Nordeste 0 -- -- 73
2020-06-13 05:00:00 20.7 19 Nordeste 27 Nordeste 0 -- -- 75
2020-06-13 04:00:00 20.8 15 Nordeste 35 Este 0 -- -- 73
2020-06-13 03:00:00 20.9 24 Nordeste 35 Nordeste 0 -- -- 74
2020-06-13 02:00:00 21.1 25 Nordeste 42 Nordeste 0 -- -- 72
2020-06-13 01:00:00 21.4 24 Nordeste 37 Este 0 -- -- 72
2020-06-13 00:00:00 21.6 8 Nordeste 39 Este 0 -- -- 67
2020-06-12 23:00:00 21.7 22 Nordeste 34 Nordeste 0 -- -- 67
2020-06-12 22:00:00 22 2 Nordeste 20 Sudoeste 0 -- -- 70
2020-06-12 21:00:00 22.1 14 Sudoeste 19 Sudoeste 0 -- -- 74
2020-06-12 20:00:00 22.5 8 Oeste 19 Este 0 -- -- 68
2020-06-12 19:00:00 22.4 15 Este 25 Este 0 -- -- 65
2020-06-12 18:00:00 22.8 15 Este 24 Este 0 -- -- 63
2020-06-12 17:00:00 23 17 Este 24 Este 0 -- -- 67
2020-06-12 16:00:00 23.1 5 Sudeste 16 Sudeste 0 -- -- 65
2020-06-12 15:00:00 23.4 9 Sudeste 19 Este 0 -- -- 69
2020-06-12 14:00:00 23.1 13 Este 21 Este 0 -- -- 67
2020-06-12 13:00:00 23 15 Este 23 Este 0 -- -- 69
2020-06-12 12:00:00 23.2 8 Sudeste 13 Este 0 -- -- 66
2020-06-12 11:00:00 23.1 9 Este -- -- -- -- -- 67
2020-06-12 10:00:00 -- -- -- -- -- -- -- -- --
2020-06-12 09:00:00 -- -- -- -- -- -- -- -- --
2020-06-12 08:00:00 -- -- -- -- -- -- -- -- --
2020-06-12 07:00:00 -- -- -- -- -- -- -- -- --
2020-06-12 06:00:00 -- -- -- -- -- -- -- -- --
2020-06-12 05:00:00 -- -- -- -- -- -- -- -- --
2020-06-12 04:00:00 15.5 5 Nordeste 19 Este 0 -- -- 74
2020-06-12 03:00:00 20.2 13 Nordeste 18 Nordeste 0 -- -- 74
2020-06-12 02:00:00 20.7 0 Calma 21 Nordeste 0 -- -- 73
2020-06-12 01:00:00 21.1 9 Nordeste 22 Nordeste 0 -- -- 74
2020-06-12 00:00:00 21 14 Nordeste 22 Nordeste 0 -- -- 76
2020-06-11 23:00:00 22 0 Calma 14 Oeste 0 -- -- 72
2020-06-11 22:00:00 22.1 2 Nordeste 14 Nordeste 0 -- -- 72
2020-06-11 21:00:00 22.3 3 Sudeste 19 Este 0 -- -- 70
2020-06-11 20:00:00 22.4 5 Sudoeste 24 Este 0 -- -- 77
2020-06-11 19:00:00 22.6 17 Este 23 Este 0 -- -- 70
2020-06-11 18:00:00 22.4 18 Este 26 Este 0 -- -- 74
2020-06-11 17:00:00 22.8 23 Este 36 Este 0 -- -- 73
2020-06-11 16:00:00 23.4 25 Este 35 Este 0 -- -- 69
2020-06-11 15:00:00 22.4 27 Este 36 Este 0 -- -- 72
2020-06-11 14:00:00 23.2 28 Este 36 Este 0 -- -- 68
2020-06-11 13:00:00 23 29 Este 38 Este 0 -- -- 71
2020-06-11 12:00:00 22.4 28 Este 39 Este 0 -- -- 75
2020-06-11 11:00:00 22.3 28 Nordeste 38 Este 0 -- -- 70
2020-06-11 10:00:00 22 22 Nordeste 30 Nordeste 0 -- -- 75
2020-06-11 09:00:00 21.6 16 Nordeste 30 Nordeste 0 -- -- 76
2020-06-11 08:00:00 21.1 14 Nordeste 26 Nordeste 0 -- -- 78
2020-06-11 07:00:00 21 16 Nordeste 29 Nordeste 0 -- -- 77
2020-06-11 06:00:00 21.1 20 Nordeste 29 Nordeste 0 -- -- 79
2020-06-11 05:00:00 21.2 19 Nordeste 27 Nordeste 0 -- -- 80
2020-06-11 04:00:00 21.2 17 Nordeste 28 Nordeste 0 -- -- 78
2020-06-11 03:00:00 21.1 20 Nordeste 35 Nordeste 0 -- -- 76
2020-06-11 02:00:00 21.3 24 Nordeste 37 Nordeste 0 -- -- 78
2020-06-11 01:00:00 21.4 27 Nordeste 35 Este 0 -- -- 78
2020-06-11 00:00:00 22 15 Nordeste 25 Nordeste 0 -- -- 72
2020-06-10 23:00:00 22 8 Nordeste 21 Este 0 -- -- 74
2020-06-10 22:00:00 22.2 5 Sur 16 Sudoeste 0 -- -- 78
2020-06-10 21:00:00 22.5 7 Sudoeste 16 Oeste 0 -- -- 79
2020-06-10 20:00:00 22.9 10 Oeste 25 Este 0 -- -- 77
2020-06-10 19:00:00 23.8 0 Calma 42 Nordeste 0 -- -- 65
2020-06-10 18:00:00 24.6 32 Nordeste 45 Este 0 -- -- 60
2020-06-10 17:00:00 24.9 34 Este 51 Este 0 -- -- 58
2020-06-10 16:00:00 24.7 39 Este 56 Este 0 -- -- 59
2020-06-10 15:00:00 24.5 39 Este 52 Este 0 -- -- 58
2020-06-10 14:00:00 23.8 41 Este 51 Este 0 -- -- 64
2020-06-10 13:00:00 24.5 35 Nordeste 48 Nordeste 0 -- -- 56
2020-06-10 12:00:00 23.9 33 Este 44 Este 0 -- -- 62
2020-06-10 11:00:00 23.7 28 Nordeste 37 Este 0 -- -- 61
2020-06-10 10:00:00 23.1 24 Nordeste 32 Nordeste 0 -- -- 67
2020-06-10 09:00:00 22.2 21 Nordeste 33 Nordeste 0 -- -- 70
2020-06-10 08:00:00 21.2 24 Nordeste 37 Nordeste 0 -- -- 74
2020-06-10 07:00:00 21 21 Nordeste 32 Nordeste 0 -- -- 77
2020-06-10 06:00:00 21.1 21 Nordeste 29 Este 0 -- -- 76
2020-06-10 05:00:00 21.1 19 Nordeste 28 Nordeste 0 -- -- 78
2020-06-10 04:00:00 21.2 21 Nordeste 31 Nordeste 0 -- -- 77
2020-06-10 03:00:00 21.6 20 Nordeste 33 Nordeste 0 -- -- 77
2020-06-10 02:00:00 21.7 23 Nordeste 38 Nordeste 0 -- -- 77
2020-06-10 01:00:00 21.8 26 Nordeste 36 Nordeste 0 -- -- 77
2020-06-10 00:00:00 21.3 21 Nordeste 37 Nordeste 0 -- -- 78
2020-06-09 23:00:00 22.2 25 Nordeste 39 Este 0 -- -- 76
2020-06-09 22:00:00 23 12 Nordeste 28 Nordeste 0 -- -- 76
2020-06-09 21:00:00 23 2 Este 22 Sudoeste 0 -- -- 76
2020-06-09 20:00:00 23.7 3 Sudoeste 31 Nordeste 0 -- -- 76
2020-06-09 19:00:00 25.4 5 Noroeste 34 Este 0 -- -- 69
2020-06-09 18:00:00 25.9 6 Nordeste 38 Nordeste 0 -- -- 60
2020-06-09 17:00:00 25.6 19 Nordeste 43 Nordeste 0 -- -- 63
2020-06-09 16:00:00 25 13 Oeste 33 Este 0 -- -- 72
2020-06-09 15:00:00 24.4 9 Este 48 Este 0 -- -- 68
2020-06-09 14:00:00 25 37 Este 50 Este 0 -- -- 72
2020-06-09 13:00:00 24.8 41 Este 52 Este 0 -- -- 69
2020-06-09 12:00:00 24.9 34 Este 49 Este 0 -- -- 67
2020-06-09 11:00:00 24.3 33 Nordeste 44 Nordeste 0 -- -- 66
2020-06-09 10:00:00 23.7 26 Nordeste 35 Nordeste 0 -- -- 70
2020-06-09 09:00:00 23.2 6 Nordeste 17 Nordeste 0 -- -- 76
2020-06-09 08:00:00 21.1 2 Norte 12 Nordeste 0 -- -- 85
2020-06-09 07:00:00 20.8 6 Nordeste 20 Este 0 -- -- 87
2020-06-09 06:00:00 21.4 10 Nordeste 24 Este 0 -- -- 88
2020-06-09 05:00:00 21.7 13 Nordeste 32 Este 0 -- -- 86
2020-06-09 04:00:00 21.7 18 Nordeste 35 Nordeste 0 -- -- 89
2020-06-09 03:00:00 21.5 13 Nordeste 31 Este 0 -- -- 85
2020-06-09 02:00:00 21.7 19 Nordeste 34 Nordeste 0 -- -- 85
2020-06-09 01:00:00 21.9 18 Nordeste 34 Nordeste 0 -- -- 84
2020-06-09 00:00:00 21.8 18 Nordeste 29 Nordeste 0 -- -- 82
2020-06-08 23:00:00 22.1 19 Nordeste 28 Nordeste 0 -- -- 81
2020-06-08 22:00:00 22.3 0 Calma 8 Sudoeste 0 -- -- 82
2020-06-08 21:00:00 23 5 Oeste 19 Oeste 0 -- -- 84
2020-06-08 20:00:00 23.5 7 Oeste 45 Este 0 -- -- 80
2020-06-08 19:00:00 25 14 Nordeste 45 Este 0 -- -- 67
2020-06-08 18:00:00 26.2 32 Nordeste 48 Este 0 -- -- 62
2020-06-08 17:00:00 24.5 33 Este 47 Este 0 -- -- 79
2020-06-08 16:00:00 24.4 11 Sudoeste 20 Sudoeste 0 -- -- 76
2020-06-08 15:00:00 24 15 Sudoeste 23 Oeste 0 -- -- 79
2020-06-08 14:00:00 24 15 Oeste 26 Sudoeste 0 -- -- 75
2020-06-08 13:00:00 24.2 8 Oeste 16 Sudoeste 0 -- -- 75
2020-06-08 12:00:00 23.9 10 Oeste 17 Sudoeste 0 -- -- 77
2020-06-08 11:00:00 23.6 8 Sudoeste 12 Sudoeste 0 -- -- 79
2020-06-08 10:00:00 22.9 4 Sur 9 Sudoeste 0 -- -- 82
2020-06-08 09:00:00 23 0 Calma 5 Nordeste 0 -- -- 81
2020-06-08 08:00:00 20.4 0 Calma 13 Sur 0 -- -- 90
2020-06-08 07:00:00 21 9 Sur 12 Sur 0 -- -- 95
2020-06-08 06:00:00 21.3 8 Sudoeste 13 Sudoeste 0 -- -- 93
2020-06-08 05:00:00 20.7 3 Sudoeste 7 Sudoeste 0 -- -- 86
2020-06-08 04:00:00 19.9 0 Calma 9 Nordeste 0 -- -- 88
2020-06-08 03:00:00 20.9 9 Nordeste 20 Nordeste 0 -- -- 87
2020-06-08 02:00:00 21.2 2 Nordeste 7 Este 0 -- -- 83
2020-06-08 01:00:00 21.8 4 Nordeste 10 Nordeste 0 -- -- 83
2020-06-08 00:00:00 22.3 2 Nordeste 9 Este 0 -- -- 81